Terminal Aerodrome Forecast
Issued by NWS

Home | Current Version | Previous Version | Text Only | Print | Product List | Glossary On
Versions: 1 2 3 4 5 6 7 8 9 10 11 12 13 14 15
000
FTUS43 KABR 272323
TAFMBG
TAF
KMBG 272323Z 2800/2824 20013KT P6SM OVC250
     FM280200 14010KT P6SM -SHRA VCTS SCT050CB OVC250
     FM280500 15008KT P6SM OVC250
     FM281800 31007KT P6SM OVC250=

USA.gov is the U.S. government's official web portal to all federal, state and local government web resources and services.